sensor_id;sensor_type;location;lat;lon;timestamp;P1;P2;P0
77516;PMS7003;68414;53.946;27.634;2023-07-22T00:00:46;5.050000;4.983333;3.750000
77516;PMS7003;68414;53.946;27.634;2023-07-22T00:01:46;4.883333;4.883333;3.483333
77516;PMS7003;68414;53.946;27.634;2023-07-22T00:02:46;3.283333;3.283333;2.700000
77516;PMS7003;68414;53.946;27.634;2023-07-22T00:03:46;4.900000;4.900000;3.750000
77516;PMS7003;68414;53.946;27.634;2023-07-22T00:04:46;3.716667;3.716667;3.016667
77516;PMS7003;68414;53.946;27.634;2023-07-22T00:05:46;4.516667;4.316667;3.250000
77516;PMS7003;68414;53.946;27.634;2023-07-22T00:06:46;3.833333;3.566667;2.700000
77516;PMS7003;68414;53.946;27.634;2023-07-22T00:07:46;4.333333;3.950000;2.900000
77516;PMS7003;68414;53.946;27.634;2023-07-22T00:08:46;3.716667;3.583333;2.783333
77516;PMS7003;68414;53.946;27.634;2023-07-22T00:09:46;2.916667;2.916667;2.550000
77516;PMS7003;68414;53.946;27.634;2023-07-22T00:10:46;3.100000;3.100000;2.000000
77516;PMS7003;68414;53.946;27.634;2023-07-22T00:11:46;3.650000;3.650000;2.916667
77516;PMS7003;68414;53.946;27.634;2023-07-22T00:12:46;3.350000;3.350000;2.383333
77516;PMS7003;68414;53.946;27.634;2023-07-22T00:13:46;3.466667;3.466667;2.850000
77516;PMS7003;68414;53.946;27.634;2023-07-22T00:14:46;4.783333;4.733333;3.300000
77516;PMS7003;68414;53.946;27.634;2023-07-22T00:15:46;4.183333;3.883333;2.683333
77516;PMS7003;68414;53.946;27.634;2023-07-22T00:16:46;4.433333;4.300000;3.100000
77516;PMS7003;68414;53.946;27.634;2023-07-22T00:17:46;3.583333;3.583333;3.050000
77516;PMS7003;68414;53.946;27.634;2023-07-22T00:18:46;4.516667;3.966667;3.183333
77516;PMS7003;68414;53.946;27.634;2023-07-22T00:19:46;4.750000;4.250000;3.000000
77516;PMS7003;68414;53.946;27.634;2023-07-22T00:20:46;4.466667;4.233333;3.050000
77516;PMS7003;68414;53.946;27.634;2023-07-22T00:21:46;3.650000;3.650000;2.566667
77516;PMS7003;68414;53.946;27.634;2023-07-22T00:22:46;4.566667;4.300000;2.950000
77516;PMS7003;68414;53.946;27.634;2023-07-22T00:23:46;4.233333;3.950000;3.133333
77516;PMS7003;68414;53.946;27.634;2023-07-22T00:24:46;4.083333;4.083333;3.100000
77516;PMS7003;68414;53.946;27.634;2023-07-22T00:25:46;4.566667;4.250000;3.133333
77516;PMS7003;68414;53.946;27.634;2023-07-22T00:26:46;3.516667;3.466667;2.866667
77516;PMS7003;68414;53.946;27.634;2023-07-22T00:27:46;4.716667;4.583333;3.650000
77516;PMS7003;68414;53.946;27.634;2023-07-22T00:28:46;4.133333;4.133333;3.250000
77516;PMS7003;68414;53.946;27.634;2023-07-22T00:29:46;4.666667;4.666667;3.700000
77516;PMS7003;68414;53.946;27.634;2023-07-22T00:30:46;3.416667;3.100000;2.683333
77516;PMS7003;68414;53.946;27.634;2023-07-22T00:31:46;3.633333;3.633333;2.800000
77516;PMS7003;68414;53.946;27.634;2023-07-22T00:32:46;3.866667;3.666667;3.050000
77516;PMS7003;68414;53.946;27.634;2023-07-22T00:33:45;3.550000;3.550000;2.683333
77516;PMS7003;68414;53.946;27.634;2023-07-22T00:34:46;4.183333;3.750000;2.950000
77516;PMS7003;68414;53.946;27.634;2023-07-22T00:35:48;4.283333;4.283333;3.366667
77516;PMS7003;68414;53.946;27.634;2023-07-22T00:36:46;4.950000;4.633333;3.616667
77516;PMS7003;68414;53.946;27.634;2023-07-22T00:37:46;4.850000;4.383333;3.750000
77516;PMS7003;68414;53.946;27.634;2023-07-22T00:38:46;4.466667;3.950000;3.316667
77516;PMS7003;68414;53.946;27.634;2023-07-22T00:39:45;5.133333;4.983333;4.233333
77516;PMS7003;68414;53.946;27.634;2023-07-22T00:40:46;5.416667;5.300000;4.333333
77516;PMS7003;68414;53.946;27.634;2023-07-22T00:41:46;4.950000;4.666667;3.616667
77516;PMS7003;68414;53.946;27.634;2023-07-22T00:42:46;4.783333;4.783333;3.700000
77516;PMS7003;68414;53.946;27.634;2023-07-22T00:43:46;4.400000;4.400000;3.683333
77516;PMS7003;68414;53.946;27.634;2023-07-22T00:44:45;4.633333;4.100000;3.516667
77516;PMS7003;68414;53.946;27.634;2023-07-22T00:45:46;4.666667;4.633333;3.500000
77516;PMS7003;68414;53.946;27.634;2023-07-22T00:46:46;4.066667;4.066667;3.533333
77516;PMS7003;68414;53.946;27.634;2023-07-22T00:47:46;4.233333;4.233333;2.950000
77516;PMS7003;68414;53.946;27.634;2023-07-22T00:48:46;4.083333;4.083333;3.183333
77516;PMS7003;68414;53.946;27.634;2023-07-22T00:49:47;3.916667;3.883333;3.050000
77516;PMS7003;68414;53.946;27.634;2023-07-22T00:50:46;4.266667;3.516667;3.116667
77516;PMS7003;68414;53.946;27.634;2023-07-22T00:51:46;4.783333;3.900000;2.933333
77516;PMS7003;68414;53.946;27.634;2023-07-22T00:52:46;5.583333;5.583333;4.166667
77516;PMS7003;68414;53.946;27.634;2023-07-22T00:53:46;5.000000;4.633333;3.450000
77516;PMS7003;68414;53.946;27.634;2023-07-22T00:54:45;4.183333;4.183333;3.400000
77516;PMS7003;68414;53.946;27.634;2023-07-22T00:55:46;4.066667;4.066667;3.400000
77516;PMS7003;68414;53.946;27.634;2023-07-22T00:56:47;3.600000;3.100000;2.700000
77516;PMS7003;68414;53.946;27.634;2023-07-22T00:57:46;4.966667;4.750000;3.566667
77516;PMS7003;68414;53.946;27.634;2023-07-22T00:58:46;3.733333;3.733333;2.800000
77516;PMS7003;68414;53.946;27.634;2023-07-22T00:59:46;5.150000;4.266667;3.150000
77516;PMS7003;68414;53.946;27.634;2023-07-22T01:00:45;5.133333;4.866667;3.633333
77516;PMS7003;68414;53.946;27.634;2023-07-22T01:01:46;4.316667;3.283333;2.633333
77516;PMS7003;68414;53.946;27.634;2023-07-22T01:02:46;4.283333;4.083333;3.233333
77516;PMS7003;68414;53.946;27.634;2023-07-22T01:03:46;3.533333;3.533333;2.683333
77516;PMS7003;68414;53.946;27.634;2023-07-22T01:04:46;3.283333;3.283333;2.550000
77516;PMS7003;68414;53.946;27.634;2023-07-22T01:05:47;3.800000;3.500000;2.683333
77516;PMS7003;68414;53.946;27.634;2023-07-22T01:06:49;5.050000;4.700000;3.783333
77516;PMS7003;68414;53.946;27.634;2023-07-22T01:07:46;4.650000;4.200000;3.383333
77516;PMS7003;68414;53.946;27.634;2023-07-22T01:08:46;4.200000;4.016667;3.166667
77516;PMS7003;68414;53.946;27.634;2023-07-22T01:09:45;4.033333;3.783333;3.216667
77516;PMS7003;68414;53.946;27.634;2023-07-22T01:10:45;3.933333;3.933333;3.300000
77516;PMS7003;68414;53.946;27.634;2023-07-22T01:11:46;4.116667;3.866667;3.100000
77516;PMS7003;68414;53.946;27.634;2023-07-22T01:12:45;3.633333;3.633333;2.766667
77516;PMS7003;68414;53.946;27.634;2023-07-22T01:13:46;3.516667;3.516667;2.933333
77516;PMS7003;68414;53.946;27.634;2023-07-22T01:14:45;4.366667;4.366667;3.366667
77516;PMS7003;68414;53.946;27.634;2023-07-22T01:15:46;3.900000;3.900000;3.283333
77516;PMS7003;68414;53.946;27.634;2023-07-22T01:16:46;4.783333;4.783333;3.733333
77516;PMS7003;68414;53.946;27.634;2023-07-22T01:17:46;4.366667;4.200000;3.283333
77516;PMS7003;68414;53.946;27.634;2023-07-22T01:18:46;5.583333;5.300000;3.650000
77516;PMS7003;68414;53.946;27.634;2023-07-22T01:19:46;5.366667;5.000000;3.766667
77516;PMS7003;68414;53.946;27.634;2023-07-22T01:20:46;6.383333;6.100000;4.466667
77516;PMS7003;68414;53.946;27.634;2023-07-22T01:21:46;5.100000;4.783333;3.533333
77516;PMS7003;68414;53.946;27.634;2023-07-22T01:23:47;5.533333;4.950000;4.333333
77516;PMS7003;68414;53.946;27.634;2023-07-22T01:24:45;5.600000;5.600000;4.966667
77516;PMS7003;68414;53.946;27.634;2023-07-22T01:25:46;4.483333;4.483333;3.900000
77516;PMS7003;68414;53.946;27.634;2023-07-22T01:26:46;5.350000;5.350000;4.050000
77516;PMS7003;68414;53.946;27.634;2023-07-22T01:27:46;5.533333;5.383333;4.133333
77516;PMS7003;68414;53.946;27.634;2023-07-22T01:28:46;5.466667;5.333333;4.516667
77516;PMS7003;68414;53.946;27.634;2023-07-22T01:29:45;5.300000;5.233333;4.033333
77516;PMS7003;68414;53.946;27.634;2023-07-22T01:30:45;4.300000;4.216667;3.083333
77516;PMS7003;68414;53.946;27.634;2023-07-22T01:31:48;5.483333;5.383333;4.166667
77516;PMS7003;68414;53.946;27.634;2023-07-22T01:32:46;5.483333;4.316667;3.333333
77516;PMS7003;68414;53.946;27.634;2023-07-22T01:33:45;3.983333;3.983333;3.050000
77516;PMS7003;68414;53.946;27.634;2023-07-22T01:34:45;3.600000;3.600000;3.000000
77516;PMS7003;68414;53.946;27.634;2023-07-22T01:35:45;4.550000;4.550000;3.683333
77516;PMS7003;68414;53.946;27.634;2023-07-22T01:36:46;4.616667;4.616667;3.716667
77516;PMS7003;68414;53.946;27.634;2023-07-22T01:37:45;5.533333;5.350000;4.000000
77516;PMS7003;68414;53.946;27.634;2023-07-22T01:38:46;5.283333;5.000000;3.883333
77516;PMS7003;68414;53.946;27.634;2023-07-22T01:39:45;4.133333;4.133333;3.183333
77516;PMS7003;68414;53.946;27.634;2023-07-22T01:40:45;4.750000;4.016667;3.033333
77516;PMS7003;68414;53.946;27.634;2023-07-22T01:41:46;5.416667;5.233333;4.050000
77516;PMS7003;68414;53.946;27.634;2023-07-22T01:42:45;4.233333;3.983333;3.533333
77516;PMS7003;68414;53.946;27.634;2023-07-22T01:43:45;4.966667;4.516667;3.800000
77516;PMS7003;68414;53.946;27.634;2023-07-22T01:44:45;4.233333;4.233333;3.383333
77516;PMS7003;68414;53.946;27.634;2023-07-22T01:45:45;3.900000;3.900000;2.933333
77516;PMS7003;68414;53.946;27.634;2023-07-22T01:46:46;4.766667;4.766667;3.583333
77516;PMS7003;68414;53.946;27.634;2023-07-22T01:47:45;5.566667;4.933333;3.800000
77516;PMS7003;68414;53.946;27.634;2023-07-22T01:48:45;6.266667;5.633333;4.050000
77516;PMS7003;68414;53.946;27.634;2023-07-22T01:49:45;5.616667;5.366667;4.183333
77516;PMS7003;68414;53.946;27.634;2023-07-22T01:50:46;5.616667;5.050000;3.966667
77516;PMS7003;68414;53.946;27.634;2023-07-22T01:51:45;4.850000;4.850000;4.016667
77516;PMS7003;68414;53.946;27.634;2023-07-22T01:52:45;3.816667;3.816667;3.383333
77516;PMS7003;68414;53.946;27.634;2023-07-22T01:53:45;5.250000;5.250000;4.033333
77516;PMS7003;68414;53.946;27.634;2023-07-22T01:54:45;5.883333;5.883333;4.366667
77516;PMS7003;68414;53.946;27.634;2023-07-22T01:55:45;4.933333;4.933333;4.050000
77516;PMS7003;68414;53.946;27.634;2023-07-22T01:56:45;4.983333;4.733333;3.300000
77516;PMS7003;68414;53.946;27.634;2023-07-22T01:57:45;5.316667;4.933333;4.083333
77516;PMS7003;68414;53.946;27.634;2023-07-22T01:58:45;4.700000;4.700000;3.666667
77516;PMS7003;68414;53.946;27.634;2023-07-22T01:59:46;5.616667;4.866667;3.350000
77516;PMS7003;68414;53.946;27.634;2023-07-22T02:01:45;5.566667;5.566667;4.266667
77516;PMS7003;68414;53.946;27.634;2023-07-22T02:02:45;5.400000;4.966667;4.000000
77516;PMS7003;68414;53.946;27.634;2023-07-22T02:03:45;4.450000;4.450000;3.300000
77516;PMS7003;68414;53.946;27.634;2023-07-22T02:04:45;4.450000;4.450000;3.883333
77516;PMS7003;68414;53.946;27.634;2023-07-22T02:05:45;5.383333;5.200000;3.983333
77516;PMS7003;68414;53.946;27.634;2023-07-22T02:06:46;4.950000;4.950000;4.183333
77516;PMS7003;68414;53.946;27.634;2023-07-22T02:07:45;4.950000;4.950000;3.550000
77516;PMS7003;68414;53.946;27.634;2023-07-22T02:08:45;5.316667;5.150000;3.833333
77516;PMS7003;68414;53.946;27.634;2023-07-22T02:09:45;4.500000;4.500000;3.516667
77516;PMS7003;68414;53.946;27.634;2023-07-22T02:10:45;5.350000;4.683333;4.133333
77516;PMS7003;68414;53.946;27.634;2023-07-22T02:11:45;5.716667;5.066667;4.250000
77516;PMS7003;68414;53.946;27.634;2023-07-22T02:12:45;5.350000;5.333333;4.300000
77516;PMS7003;68414;53.946;27.634;2023-07-22T02:13:45;4.583333;4.583333;3.600000
77516;PMS7003;68414;53.946;27.634;2023-07-22T02:14:45;4.816667;4.066667;3.050000
77516;PMS7003;68414;53.946;27.634;2023-07-22T02:15:45;5.200000;5.133333;4.350000
77516;PMS7003;68414;53.946;27.634;2023-07-22T02:16:45;5.350000;4.083333;3.200000
77516;PMS7003;68414;53.946;27.634;2023-07-22T02:17:45;5.133333;4.616667;3.783333
77516;PMS7003;68414;53.946;27.634;2023-07-22T02:18:45;6.000000;5.316667;4.450000
77516;PMS7003;68414;53.946;27.634;2023-07-22T02:19:45;5.333333;4.733333;3.533333
77516;PMS7003;68414;53.946;27.634;2023-07-22T02:20:45;4.266667;4.266667;3.700000
77516;PMS7003;68414;53.946;27.634;2023-07-22T02:21:45;6.516667;5.233333;4.183333
77516;PMS7003;68414;53.946;27.634;2023-07-22T02:22:45;5.300000;5.250000;3.733333
77516;PMS7003;68414;53.946;27.634;2023-07-22T02:23:45;5.100000;4.616667;3.716667
77516;PMS7003;68414;53.946;27.634;2023-07-22T02:24:45;4.350000;4.350000;3.233333
77516;PMS7003;68414;53.946;27.634;2023-07-22T02:26:45;4.333333;4.333333;3.083333
77516;PMS7003;68414;53.946;27.634;2023-07-22T02:27:45;4.850000;4.850000;4.000000
77516;PMS7003;68414;53.946;27.634;2023-07-22T02:28:46;5.000000;5.000000;3.900000
77516;PMS7003;68414;53.946;27.634;2023-07-22T02:29:45;5.216667;4.700000;3.950000
77516;PMS7003;68414;53.946;27.634;2023-07-22T02:30:45;5.166667;5.083333;4.016667
77516;PMS7003;68414;53.946;27.634;2023-07-22T02:31:45;4.900000;4.900000;3.700000
77516;PMS7003;68414;53.946;27.634;2023-07-22T02:32:45;4.450000;4.133333;3.100000
77516;PMS7003;68414;53.946;27.634;2023-07-22T02:33:45;5.416667;5.416667;4.400000
77516;PMS7003;68414;53.946;27.634;2023-07-22T02:34:45;5.916667;5.816667;4.066667
77516;PMS7003;68414;53.946;27.634;2023-07-22T02:35:47;4.466667;4.216667;3.450000
77516;PMS7003;68414;53.946;27.634;2023-07-22T02:36:45;4.283333;4.283333;3.783333
77516;PMS7003;68414;53.946;27.634;2023-07-22T02:37:45;4.416667;4.416667;3.483333
77516;PMS7003;68414;53.946;27.634;2023-07-22T02:38:45;4.933333;4.600000;3.600000
77516;PMS7003;68414;53.946;27.634;2023-07-22T02:39:45;4.650000;4.550000;3.833333
77516;PMS7003;68414;53.946;27.634;2023-07-22T02:40:45;5.433333;5.133333;4.000000
77516;PMS7003;68414;53.946;27.634;2023-07-22T02:41:45;4.150000;4.150000;3.466667
77516;PMS7003;68414;53.946;27.634;2023-07-22T02:42:45;5.833333;5.433333;4.666667
77516;PMS7003;68414;53.946;27.634;2023-07-22T02:43:45;6.333333;5.716667;4.216667
77516;PMS7003;68414;53.946;27.634;2023-07-22T02:44:45;5.633333;5.033333;4.033333
77516;PMS7003;68414;53.946;27.634;2023-07-22T02:45:45;5.833333;5.583333;4.883333
77516;PMS7003;68414;53.946;27.634;2023-07-22T02:46:46;6.216667;5.950000;4.583333
77516;PMS7003;68414;53.946;27.634;2023-07-22T02:47:45;7.033333;5.816667;3.983333
77516;PMS7003;68414;53.946;27.634;2023-07-22T02:48:45;5.883333;5.883333;4.783333
77516;PMS7003;68414;53.946;27.634;2023-07-22T02:49:45;4.916667;4.916667;3.750000
77516;PMS7003;68414;53.946;27.634;2023-07-22T02:50:45;6.483333;5.266667;3.966667
77516;PMS7003;68414;53.946;27.634;2023-07-22T02:51:45;4.566667;4.566667;3.783333
77516;PMS7003;68414;53.946;27.634;2023-07-22T02:52:45;5.266667;4.966667;3.866667
77516;PMS7003;68414;53.946;27.634;2023-07-22T02:53:46;6.416667;6.183333;4.366667
77516;PMS7003;68414;53.946;27.634;2023-07-22T02:55:45;6.416667;5.466667;4.866667
77516;PMS7003;68414;53.946;27.634;2023-07-22T02:56:45;6.366667;5.800000;4.650000
77516;PMS7003;68414;53.946;27.634;2023-07-22T02:57:47;6.200000;5.966667;4.700000
77516;PMS7003;68414;53.946;27.634;2023-07-22T02:58:45;6.300000;6.300000;5.016667
77516;PMS7003;68414;53.946;27.634;2023-07-22T02:59:45;6.600000;6.600000;5.716667
77516;PMS7003;68414;53.946;27.634;2023-07-22T03:00:45;6.500000;5.066667;4.283333
77516;PMS7003;68414;53.946;27.634;2023-07-22T03:01:45;7.500000;6.516667;5.050000
77516;PMS7003;68414;53.946;27.634;2023-07-22T03:02:45;6.150000;6.150000;5.250000
77516;PMS7003;68414;53.946;27.634;2023-07-22T03:03:45;6.566667;6.566667;5.066667
77516;PMS7003;68414;53.946;27.634;2023-07-22T03:04:45;7.000000;6.550000;4.916667
77516;PMS7003;68414;53.946;27.634;2023-07-22T03:05:45;7.166667;6.966667;5.250000
77516;PMS7003;68414;53.946;27.634;2023-07-22T03:06:46;6.033333;5.833333;4.583333
77516;PMS7003;68414;53.946;27.634;2023-07-22T03:07:45;6.150000;5.533333;4.650000
77516;PMS7003;68414;53.946;27.634;2023-07-22T03:08:45;6.583333;6.383333;5.483333
77516;PMS7003;68414;53.946;27.634;2023-07-22T03:09:46;7.333333;6.333333;5.450000
77516;PMS7003;68414;53.946;27.634;2023-07-22T03:10:45;7.166667;6.883333;5.666667
77516;PMS7003;68414;53.946;27.634;2023-07-22T03:11:45;6.666667;6.433333;5.116667
77516;PMS7003;68414;53.946;27.634;2023-07-22T03:12:46;5.950000;5.466667;4.933333
77516;PMS7003;68414;53.946;27.634;2023-07-22T03:13:45;4.916667;4.916667;3.883333
77516;PMS7003;68414;53.946;27.634;2023-07-22T03:14:45;5.500000;5.333333;3.966667
77516;PMS7003;68414;53.946;27.634;2023-07-22T03:15:45;6.216667;6.216667;5.000000
77516;PMS7003;68414;53.946;27.634;2023-07-22T03:16:45;5.383333;5.016667;4.283333
77516;PMS7003;68414;53.946;27.634;2023-07-22T03:17:45;6.216667;5.483333;3.900000
77516;PMS7003;68414;53.946;27.634;2023-07-22T03:18:45;5.366667;5.266667;3.933333
77516;PMS7003;68414;53.946;27.634;2023-07-22T03:19:46;4.900000;4.833333;4.050000
77516;PMS7003;68414;53.946;27.634;2023-07-22T03:20:45;5.383333;5.383333;4.133333
77516;PMS7003;68414;53.946;27.634;2023-07-22T03:21:45;6.800000;6.133333;4.100000
77516;PMS7003;68414;53.946;27.634;2023-07-22T03:22:46;6.950000;6.600000;4.933333
77516;PMS7003;68414;53.946;27.634;2023-07-22T03:23:45;7.550000;6.550000;5.450000
77516;PMS7003;68414;53.946;27.634;2023-07-22T03:24:45;6.416667;6.266667;5.366667
77516;PMS7003;68414;53.946;27.634;2023-07-22T03:25:47;6.083333;6.016667;5.200000
77516;PMS7003;68414;53.946;27.634;2023-07-22T03:26:45;5.883333;5.016667;4.100000
77516;PMS7003;68414;53.946;27.634;2023-07-22T03:27:46;6.216667;6.216667;5.133333
77516;PMS7003;68414;53.946;27.634;2023-07-22T03:28:45;5.950000;5.950000;4.783333
77516;PMS7003;68414;53.946;27.634;2023-07-22T03:29:45;7.566667;7.433333;5.733333
77516;PMS7003;68414;53.946;27.634;2023-07-22T03:30:45;6.533333;6.500000;4.966667
77516;PMS7003;68414;53.946;27.634;2023-07-22T03:31:45;7.500000;6.866667;4.900000
77516;PMS7003;68414;53.946;27.634;2023-07-22T03:32:46;6.716667;5.933333;4.700000
77516;PMS7003;68414;53.946;27.634;2023-07-22T03:33:45;6.866667;6.233333;4.916667
77516;PMS7003;68414;53.946;27.634;2023-07-22T03:34:45;8.816667;8.250000;5.900000
77516;PMS7003;68414;53.946;27.634;2023-07-22T03:35:45;7.116667;6.733333;5.783333
77516;PMS7003;68414;53.946;27.634;2023-07-22T03:36:45;7.400000;7.400000;6.366667
77516;PMS7003;68414;53.946;27.634;2023-07-22T03:37:45;6.816667;6.816667;5.166667
77516;PMS7003;68414;53.946;27.634;2023-07-22T03:38:45;6.416667;6.416667;4.983333
77516;PMS7003;68414;53.946;27.634;2023-07-22T03:39:45;7.650000;6.633333;4.916667
77516;PMS7003;68414;53.946;27.634;2023-07-22T03:40:45;6.650000;6.433333;5.016667
77516;PMS7003;68414;53.946;27.634;2023-07-22T03:41:45;5.983333;5.983333;4.166667
77516;PMS7003;68414;53.946;27.634;2023-07-22T03:42:47;5.866667;5.483333;4.433333
77516;PMS7003;68414;53.946;27.634;2023-07-22T03:43:45;7.366667;7.366667;5.500000
77516;PMS7003;68414;53.946;27.634;2023-07-22T03:44:45;5.383333;5.383333;4.533333
77516;PMS7003;68414;53.946;27.634;2023-07-22T03:45:45;6.316667;5.900000;4.716667
77516;PMS7003;68414;53.946;27.634;2023-07-22T03:46:46;6.783333;6.783333;4.900000
77516;PMS7003;68414;53.946;27.634;2023-07-22T03:47:47;7.550000;7.166667;5.366667
77516;PMS7003;68414;53.946;27.634;2023-07-22T03:48:45;7.433333;6.416667;5.700000
77516;PMS7003;68414;53.946;27.634;2023-07-22T03:49:45;6.833333;6.783333;5.300000
77516;PMS7003;68414;53.946;27.634;2023-07-22T03:50:45;5.950000;5.950000;4.916667
77516;PMS7003;68414;53.946;27.634;2023-07-22T03:51:45;6.500000;6.183333;4.900000
77516;PMS7003;68414;53.946;27.634;2023-07-22T03:52:45;6.666667;6.416667;4.966667
77516;PMS7003;68414;53.946;27.634;2023-07-22T03:53:45;9.083333;8.366667;6.333333
77516;PMS7003;68414;53.946;27.634;2023-07-22T03:54:45;8.616667;7.633333;5.850000
77516;PMS7003;68414;53.946;27.634;2023-07-22T03:55:45;8.083333;8.000000;6.300000
77516;PMS7003;68414;53.946;27.634;2023-07-22T03:56:45;7.800000;7.483333;5.633333
77516;PMS7003;68414;53.946;27.634;2023-07-22T03:57:45;9.000000;8.016666;6.500000
77516;PMS7003;68414;53.946;27.634;2023-07-22T03:58:45;7.666667;7.400000;6.200000
77516;PMS7003;68414;53.946;27.634;2023-07-22T03:59:45;7.866667;7.666667;6.616667
77516;PMS7003;68414;53.946;27.634;2023-07-22T04:00:48;10.716666;9.300000;6.533333
77516;PMS7003;68414;53.946;27.634;2023-07-22T04:01:45;10.050000;9.566667;7.183333
77516;PMS7003;68414;53.946;27.634;2023-07-22T04:02:45;10.033334;9.216666;7.083333
77516;PMS7003;68414;53.946;27.634;2023-07-22T04:03:45;7.816667;7.816667;5.733333
77516;PMS7003;68414;53.946;27.634;2023-07-22T04:04:45;9.533334;8.600000;5.650000
77516;PMS7003;68414;53.946;27.634;2023-07-22T04:06:45;8.533334;8.533334;6.633333
77516;PMS7003;68414;53.946;27.634;2023-07-22T04:07:45;10.650000;10.200000;7.416667
77516;PMS7003;68414;53.946;27.634;2023-07-22T04:08:45;9.733334;8.866667;6.650000
77516;PMS7003;68414;53.946;27.634;2023-07-22T04:09:45;9.466666;9.200000;7.016667
77516;PMS7003;68414;53.946;27.634;2023-07-22T04:11:45;9.566667;8.933333;6.616667
77516;PMS7003;68414;53.946;27.634;2023-07-22T04:12:45;9.600000;9.016666;6.716667
77516;PMS7003;68414;53.946;27.634;2023-07-22T04:13:45;9.483334;8.183333;6.416667
77516;PMS7003;68414;53.946;27.634;2023-07-22T04:14:45;10.050000;9.316667;7.200000
77516;PMS7003;68414;53.946;27.634;2023-07-22T04:15:47;9.000000;8.566667;6.533333
77516;PMS7003;68414;53.946;27.634;2023-07-22T04:16:45;9.100000;8.883333;7.100000
77516;PMS7003;68414;53.946;27.634;2023-07-22T04:17:45;10.666667;9.866667;7.500000
77516;PMS7003;68414;53.946;27.634;2023-07-22T04:18:45;8.233334;7.583333;6.116667
77516;PMS7003;68414;53.946;27.634;2023-07-22T04:19:45;9.650000;8.983334;6.450000
77516;PMS7003;68414;53.946;27.634;2023-07-22T04:20:46;10.183333;9.450000;6.800000
77516;PMS7003;68414;53.946;27.634;2023-07-22T04:21:45;10.850000;10.366667;8.866667
77516;PMS7003;68414;53.946;27.634;2023-07-22T04:22:45;13.450000;12.483334;9.850000
77516;PMS7003;68414;53.946;27.634;2023-07-22T04:23:45;11.550000;10.183333;8.066667
77516;PMS7003;68414;53.946;27.634;2023-07-22T04:24:45;9.350000;9.000000;6.833333
77516;PMS7003;68414;53.946;27.634;2023-07-22T04:25:45;10.966666;10.066667;6.833333
77516;PMS7003;68414;53.946;27.634;2023-07-22T04:26:45;9.950000;9.300000;7.583333
77516;PMS7003;68414;53.946;27.634;2023-07-22T04:27:45;8.466666;7.866667;6.266667
77516;PMS7003;68414;53.946;27.634;2023-07-22T04:28:45;9.183333;8.183333;6.233333
77516;PMS7003;68414;53.946;27.634;2023-07-22T04:29:45;10.300000;9.433333;6.816667
77516;PMS7003;68414;53.946;27.634;2023-07-22T04:30:54;10.183333;9.550000;6.933333
77516;PMS7003;68414;53.946;27.634;2023-07-22T04:31:45;9.216666;8.266666;6.166667
77516;PMS7003;68414;53.946;27.634;2023-07-22T04:32:47;10.066667;9.733334;7.583333
77516;PMS7003;68414;53.946;27.634;2023-07-22T04:33:45;9.183333;8.716666;6.550000
77516;PMS7003;68414;53.946;27.634;2023-07-22T04:34:46;11.733334;10.533334;7.766667
77516;PMS7003;68414;53.946;27.634;2023-07-22T04:35:45;8.750000;8.316667;6.266667
77516;PMS7003;68414;53.946;27.634;2023-07-22T04:36:45;10.100000;9.916667;8.350000
77516;PMS7003;68414;53.946;27.634;2023-07-22T04:37:45;12.216666;11.233334;8.400000
77516;PMS7003;68414;53.946;27.634;2023-07-22T04:38:45;8.600000;8.483334;6.750000
77516;PMS7003;68414;53.946;27.634;2023-07-22T04:40:45;7.400000;6.883333;4.933333
77516;PMS7003;68414;53.946;27.634;2023-07-22T04:41:45;6.866667;6.466667;5.316667
77516;PMS7003;68414;53.946;27.634;2023-07-22T04:42:45;7.916667;7.416667;5.316667
77516;PMS7003;68414;53.946;27.634;2023-07-22T04:43:45;9.633333;9.450000;7.050000
77516;PMS7003;68414;53.946;27.634;2023-07-22T04:44:45;6.633333;6.283333;4.650000
77516;PMS7003;68414;53.946;27.634;2023-07-22T04:45:46;6.916667;6.433333;4.833333
77516;PMS7003;68414;53.946;27.634;2023-07-22T04:46:46;7.033333;7.033333;5.100000
77516;PMS7003;68414;53.946;27.634;2023-07-22T04:47:45;6.933333;6.933333;5.233333
77516;PMS7003;68414;53.946;27.634;2023-07-22T04:48:45;6.633333;6.183333;4.566667
77516;PMS7003;68414;53.946;27.634;2023-07-22T04:49:45;6.683333;5.750000;4.733333
77516;PMS7003;68414;53.946;27.634;2023-07-22T04:50:45;7.066667;6.350000;5.100000
77516;PMS7003;68414;53.946;27.634;2023-07-22T04:51:46;7.400000;7.100000;5.200000
77516;PMS7003;68414;53.946;27.634;2023-07-22T04:52:46;8.233334;7.550000;5.733333
77516;PMS7003;68414;53.946;27.634;2023-07-22T04:53:45;6.350000;6.316667;5.316667
77516;PMS7003;68414;53.946;27.634;2023-07-22T04:54:45;8.450000;7.616667;5.883333
77516;PMS7003;68414;53.946;27.634;2023-07-22T04:55:45;7.116667;6.666667;4.900000
77516;PMS7003;68414;53.946;27.634;2023-07-22T04:56:45;5.650000;5.200000;4.100000
77516;PMS7003;68414;53.946;27.634;2023-07-22T04:57:45;5.200000;4.433333;3.550000
77516;PMS7003;68414;53.946;27.634;2023-07-22T04:58:45;6.933333;6.250000;4.666667
77516;PMS7003;68414;53.946;27.634;2023-07-22T04:59:45;7.500000;7.050000;5.600000
77516;PMS7003;68414;53.946;27.634;2023-07-22T05:00:45;6.533333;5.366667;4.133333
77516;PMS7003;68414;53.946;27.634;2023-07-22T05:01:45;6.250000;6.250000;4.600000